createdAt,value
2017-12-31T00:00:13.352Z,84.10
2017-12-31T00:02:40.818Z,83.70
2017-12-31T00:05:08.486Z,83.50
2017-12-31T00:07:35.948Z,83.90
2017-12-31T00:10:03.400Z,82.60
2017-12-31T00:12:30.897Z,82.30
2017-12-31T00:14:58.306Z,81.00
2017-12-31T00:17:25.760Z,80.90
2017-12-31T00:19:53.228Z,80.40
2017-12-31T00:22:20.711Z,78.90
2017-12-31T00:24:48.163Z,77.90
2017-12-31T00:27:15.627Z,77.30
2017-12-31T00:29:43.083Z,77.00
2017-12-31T00:32:10.530Z,76.90
2017-12-31T00:34:37.989Z,75.80
2017-12-31T00:37:05.437Z,75.20
2017-12-31T00:39:32.916Z,74.70
2017-12-31T00:42:00.351Z,74.10
2017-12-31T00:44:28.560Z,74.00
2017-12-31T00:46:56.785Z,73.30
2017-12-31T00:49:24.203Z,73.10
2017-12-31T00:51:51.654Z,72.80
2017-12-31T00:54:19.096Z,71.90
2017-12-31T00:56:46.539Z,71.80
2017-12-31T00:59:13.976Z,70.60
2017-12-31T01:01:41.435Z,70.80
2017-12-31T01:04:08.892Z,69.90
2017-12-31T01:06:36.389Z,69.40
2017-12-31T01:09:03.836Z,69.00
2017-12-31T01:11:31.331Z,68.30
2017-12-31T01:13:58.769Z,68.50
2017-12-31T01:16:26.220Z,67.80
2017-12-31T01:18:53.664Z,67.60
2017-12-31T01:21:21.147Z,67.90
2017-12-31T01:23:48.599Z,66.80
2017-12-31T01:26:16.032Z,67.90
2017-12-31T01:28:43.479Z,66.90
2017-12-31T01:31:10.935Z,65.90
2017-12-31T01:33:38.428Z,65.70
2017-12-31T01:36:05.879Z,65.40
2017-12-31T01:38:33.315Z,64.90
2017-12-31T01:41:00.772Z,65.50
2017-12-31T01:43:28.219Z,65.80
2017-12-31T01:45:55.675Z,65.70
2017-12-31T01:48:23.116Z,64.90
2017-12-31T01:50:50.599Z,65.10
2017-12-31T01:53:18.039Z,64.10
2017-12-31T01:55:45.499Z,64.70
2017-12-31T01:58:12.944Z,64.10
2017-12-31T02:00:40.403Z,63.30
2017-12-31T02:03:07.867Z,63.40
2017-12-31T02:05:35.309Z,63.10
2017-12-31T02:08:02.751Z,63.20
2017-12-31T02:10:30.192Z,62.50
2017-12-31T02:12:58.394Z,62.00
2017-12-31T02:15:25.850Z,62.00
2017-12-31T02:17:53.317Z,62.30
2017-12-31T02:20:20.771Z,62.20
2017-12-31T02:22:48.280Z,61.70
2017-12-31T02:25:15.704Z,61.60
2017-12-31T02:27:43.156Z,61.30
2017-12-31T02:30:10.600Z,60.80
2017-12-31T02:32:38.072Z,60.70
2017-12-31T02:35:05.508Z,61.40
2017-12-31T02:37:32.944Z,60.40
2017-12-31T02:40:00.407Z,61.50
2017-12-31T02:42:27.835Z,60.80
2017-12-31T02:44:55.285Z,60.30
2017-12-31T02:47:22.713Z,60.40
2017-12-31T02:49:50.173Z,60.10
2017-12-31T02:52:17.613Z,60.30
2017-12-31T02:54:45.075Z,59.90
2017-12-31T02:57:12.539Z,60.00
2017-12-31T02:59:39.989Z,59.60
2017-12-31T03:02:07.447Z,60.70
2017-12-31T03:04:34.893Z,59.90
2017-12-31T03:07:02.360Z,60.40
2017-12-31T03:09:29.820Z,60.70
2017-12-31T03:11:57.275Z,60.60
2017-12-31T03:14:24.744Z,60.60
2017-12-31T03:16:52.192Z,60.70
2017-12-31T03:19:19.647Z,60.90
2017-12-31T03:21:47.106Z,61.00
2017-12-31T03:24:14.632Z,60.90
2017-12-31T03:26:42.065Z,61.20
2017-12-31T03:29:09.508Z,61.20
2017-12-31T03:31:36.944Z,61.50
2017-12-31T03:34:04.393Z,61.10
2017-12-31T03:36:31.849Z,61.70
2017-12-31T03:38:59.305Z,61.40
2017-12-31T03:41:26.764Z,61.70
2017-12-31T03:43:54.227Z,62.00
2017-12-31T03:46:21.744Z,61.70
2017-12-31T03:48:49.171Z,61.40
2017-12-31T03:51:16.626Z,61.30
2017-12-31T03:53:44.071Z,61.60
2017-12-31T03:56:11.528Z,61.60
2017-12-31T03:58:38.962Z,61.50
2017-12-31T04:01:06.421Z,61.70
2017-12-31T04:03:33.854Z,60.90
2017-12-31T04:06:01.296Z,60.50
2017-12-31T04:08:29.521Z,60.00
2017-12-31T04:10:56.961Z,59.80
2017-12-31T04:13:24.418Z,59.90
2017-12-31T04:15:51.867Z,59.40
2017-12-31T04:18:19.319Z,59.30
2017-12-31T04:20:46.795Z,59.30
2017-12-31T04:23:14.235Z,58.80
2017-12-31T04:25:41.699Z,58.40
2017-12-31T04:28:09.155Z,58.70
2017-12-31T04:30:36.597Z,57.90
2017-12-31T04:33:04.077Z,57.90
2017-12-31T04:35:31.504Z,58.10
2017-12-31T04:37:58.949Z,58.10
2017-12-31T04:40:26.401Z,57.70
2017-12-31T04:42:53.847Z,57.90
2017-12-31T04:45:21.286Z,57.50
2017-12-31T04:47:48.739Z,57.40
2017-12-31T04:50:17.788Z,57.70
2017-12-31T04:52:45.219Z,57.20
2017-12-31T04:55:12.656Z,57.20
2017-12-31T04:57:40.108Z,57.20
2017-12-31T05:00:07.563Z,56.50
2017-12-31T05:02:34.985Z,56.70
2017-12-31T05:05:02.459Z,56.40
2017-12-31T05:07:29.899Z,56.40
2017-12-31T05:09:57.356Z,56.30
2017-12-31T05:12:24.901Z,55.60
2017-12-31T05:14:52.441Z,55.70
2017-12-31T05:17:20.656Z,55.20
2017-12-31T05:19:48.121Z,55.20
2017-12-31T05:22:15.564Z,55.10
2017-12-31T05:24:43.000Z,55.00
2017-12-31T05:27:11.227Z,54.40
2017-12-31T05:29:38.675Z,54.30
2017-12-31T05:32:06.116Z,54.40
2017-12-31T05:34:33.568Z,54.70
2017-12-31T05:37:01.015Z,53.90
2017-12-31T05:39:28.463Z,53.90
2017-12-31T05:41:56.660Z,53.50
2017-12-31T05:44:24.136Z,53.40
2017-12-31T05:46:51.570Z,54.10
2017-12-31T05:49:19.035Z,53.50
2017-12-31T05:51:46.475Z,53.20
2017-12-31T05:54:14.063Z,53.10
2017-12-31T05:56:41.583Z,53.50
2017-12-31T05:59:09.801Z,53.60
2017-12-31T06:01:37.246Z,53.50
2017-12-31T06:04:04.700Z,53.20
2017-12-31T06:06:32.147Z,52.70
2017-12-31T06:08:59.592Z,53.50
2017-12-31T06:11:27.184Z,52.50
2017-12-31T06:13:54.604Z,52.90
2017-12-31T06:16:22.811Z,52.70
2017-12-31T06:18:50.268Z,52.70
2017-12-31T06:21:17.725Z,52.50
2017-12-31T06:23:45.188Z,52.60
2017-12-31T06:26:12.629Z,52.50
2017-12-31T06:28:40.103Z,52.60
2017-12-31T06:31:07.554Z,52.20
2017-12-31T06:33:35.017Z,52.30
2017-12-31T06:36:02.451Z,52.70
2017-12-31T06:38:29.932Z,52.50
2017-12-31T06:40:57.367Z,52.30
2017-12-31T06:43:24.845Z,52.70
2017-12-31T06:45:52.292Z,52.70
2017-12-31T06:48:19.759Z,52.50
2017-12-31T06:50:47.178Z,52.90
2017-12-31T06:53:14.621Z,53.10
2017-12-31T06:55:42.060Z,53.40
2017-12-31T06:58:09.516Z,53.20
2017-12-31T07:00:36.957Z,53.50
2017-12-31T07:03:04.484Z,53.50
2017-12-31T07:05:31.940Z,53.60
2017-12-31T07:07:59.405Z,53.80
2017-12-31T07:10:26.855Z,54.10
2017-12-31T07:12:54.300Z,54.30
2017-12-31T07:15:21.746Z,54.70
2017-12-31T07:17:49.247Z,54.70
2017-12-31T07:20:16.659Z,55.10
2017-12-31T07:22:44.868Z,55.30
2017-12-31T07:25:13.728Z,55.30
2017-12-31T07:27:41.181Z,55.30
2017-12-31T07:30:08.604Z,55.20
2017-12-31T07:32:36.047Z,55.20
2017-12-31T07:35:03.476Z,55.60
2017-12-31T07:37:30.940Z,55.90
2017-12-31T07:39:58.394Z,56.30
2017-12-31T07:42:25.848Z,56.10
2017-12-31T07:44:53.318Z,56.10
2017-12-31T07:47:21.523Z,55.80
2017-12-31T07:49:48.988Z,55.70
2017-12-31T07:52:16.445Z,56.30
2017-12-31T07:54:43.907Z,55.90
2017-12-31T07:57:11.360Z,55.90
2017-12-31T07:59:38.837Z,56.20
2017-12-31T08:02:06.299Z,55.90
2017-12-31T08:04:34.524Z,56.50
2017-12-31T08:07:01.959Z,56.40
2017-12-31T08:09:29.531Z,56.10
2017-12-31T08:11:56.964Z,55.90
2017-12-31T08:14:24.412Z,55.50
2017-12-31T08:16:51.876Z,55.90
2017-12-31T08:19:19.366Z,55.50
2017-12-31T08:21:46.784Z,55.90
2017-12-31T08:24:14.244Z,55.90
2017-12-31T08:26:41.696Z,56.00
2017-12-31T08:29:09.155Z,55.60
2017-12-31T08:31:36.620Z,55.50
2017-12-31T08:34:04.052Z,56.40
2017-12-31T08:36:31.565Z,55.60
2017-12-31T08:38:59.003Z,55.50
2017-12-31T08:41:26.437Z,55.70
2017-12-31T08:43:53.896Z,55.40
2017-12-31T08:46:21.340Z,55.80
2017-12-31T08:48:48.803Z,55.40
2017-12-31T08:51:16.268Z,55.20
2017-12-31T08:53:43.735Z,55.00
2017-12-31T08:56:11.183Z,55.40
2017-12-31T08:58:38.639Z,55.10
2017-12-31T09:01:06.076Z,54.80
2017-12-31T09:03:33.540Z,55.00
2017-12-31T09:06:00.994Z,55.30
2017-12-31T09:08:28.445Z,54.40
2017-12-31T09:10:55.904Z,54.10
2017-12-31T09:13:23.380Z,54.10
2017-12-31T09:15:50.814Z,53.90
2017-12-31T09:18:18.315Z,53.50
2017-12-31T09:20:45.742Z,53.60
2017-12-31T09:23:13.394Z,53.60
2017-12-31T09:25:40.841Z,53.40
2017-12-31T09:28:08.305Z,53.00
2017-12-31T09:30:35.771Z,53.40
2017-12-31T09:33:03.232Z,53.00
2017-12-31T09:35:30.689Z,53.10
2017-12-31T09:37:58.286Z,52.60
2017-12-31T09:40:25.720Z,52.60
2017-12-31T09:42:53.173Z,52.90
2017-12-31T09:45:20.627Z,52.40
2017-12-31T09:47:48.088Z,52.40
2017-12-31T09:50:15.528Z,52.00
2017-12-31T09:52:42.991Z,51.80
2017-12-31T09:55:10.447Z,51.70
2017-12-31T09:57:37.912Z,51.40
2017-12-31T10:00:05.369Z,51.80
2017-12-31T10:02:33.583Z,50.40
2017-12-31T10:05:01.007Z,50.30
2017-12-31T10:07:28.458Z,50.50
2017-12-31T10:09:55.904Z,48.80
2017-12-31T10:12:23.359Z,48.20
2017-12-31T10:14:50.986Z,45.10
2017-12-31T10:17:18.416Z,43.60
2017-12-31T10:19:45.847Z,39.80
2017-12-31T10:22:14.277Z,34.80
2017-12-31T10:24:41.688Z,34.00
2017-12-31T10:27:09.932Z,32.00
2017-12-31T10:29:37.385Z,32.00
2017-12-31T10:32:04.820Z,30.30
2017-12-31T10:34:32.277Z,30.00
2017-12-31T10:36:59.725Z,29.80
2017-12-31T10:39:27.155Z,29.70
2017-12-31T10:41:54.590Z,29.90
2017-12-31T10:44:22.071Z,29.10
2017-12-31T10:46:50.290Z,28.90
2017-12-31T10:49:17.716Z,28.80
2017-12-31T10:51:45.158Z,28.60
2017-12-31T10:54:12.603Z,29.40
2017-12-31T10:56:40.047Z,29.00
2017-12-31T10:59:07.488Z,28.90
2017-12-31T11:01:34.964Z,27.40
2017-12-31T11:04:02.392Z,27.00
2017-12-31T11:06:29.864Z,26.60
2017-12-31T11:08:57.319Z,27.30
2017-12-31T11:11:24.790Z,26.10
2017-12-31T11:13:52.226Z,26.40
2017-12-31T11:16:19.683Z,26.80
2017-12-31T11:18:47.138Z,25.80
2017-12-31T11:21:14.607Z,25.60
2017-12-31T11:23:42.068Z,24.90
2017-12-31T11:26:09.524Z,24.60
2017-12-31T11:28:36.963Z,24.70
2017-12-31T11:31:04.433Z,24.50
2017-12-31T11:33:31.896Z,24.90
2017-12-31T11:35:59.339Z,24.30
2017-12-31T11:38:26.795Z,24.20
2017-12-31T11:40:54.254Z,25.30
2017-12-31T11:43:21.708Z,25.40
2017-12-31T11:45:49.165Z,24.90
2017-12-31T11:48:16.643Z,25.00
2017-12-31T11:50:44.120Z,25.90
2017-12-31T11:53:11.571Z,25.90
2017-12-31T11:55:39.016Z,26.00
2017-12-31T11:58:06.648Z,26.70
2017-12-31T12:00:34.105Z,26.60
2017-12-31T12:03:01.560Z,25.00
2017-12-31T12:05:28.984Z,24.50
2017-12-31T12:07:57.192Z,23.90
2017-12-31T12:10:24.648Z,23.90
2017-12-31T12:12:52.113Z,23.80
2017-12-31T12:15:19.565Z,23.10
2017-12-31T12:17:47.027Z,23.00
2017-12-31T12:20:15.362Z,22.30
2017-12-31T12:22:42.779Z,22.20
2017-12-31T12:25:10.240Z,22.30
2017-12-31T12:27:37.709Z,23.00
2017-12-31T12:30:05.134Z,23.20
2017-12-31T12:32:32.888Z,22.80
2017-12-31T12:35:00.293Z,22.90
2017-12-31T12:37:27.725Z,22.80
2017-12-31T12:39:55.182Z,22.70
2017-12-31T12:42:22.625Z,23.20
2017-12-31T12:44:50.180Z,23.90
2017-12-31T12:47:17.636Z,24.70
2017-12-31T12:49:45.085Z,25.90
2017-12-31T12:52:12.557Z,26.50
2017-12-31T12:54:40.001Z,27.00
2017-12-31T12:57:07.445Z,26.70
2017-12-31T12:59:34.896Z,26.40
2017-12-31T13:02:03.108Z,25.40
2017-12-31T13:04:30.557Z,25.40
2017-12-31T13:06:58.215Z,24.70
2017-12-31T13:09:25.645Z,24.20
2017-12-31T13:11:53.084Z,24.60
2017-12-31T13:14:21.300Z,24.90
2017-12-31T13:16:48.743Z,24.80
2017-12-31T13:19:16.178Z,24.30
2017-12-31T13:21:44.381Z,23.80
2017-12-31T13:24:11.873Z,23.80
2017-12-31T13:26:39.282Z,23.50
2017-12-31T13:29:06.729Z,24.60
2017-12-31T13:31:34.156Z,25.60
2017-12-31T13:34:01.591Z,27.10
2017-12-31T13:36:29.061Z,28.50
2017-12-31T13:38:56.492Z,30.00
2017-12-31T13:41:23.957Z,32.80
2017-12-31T13:43:51.400Z,33.90
2017-12-31T13:46:18.859Z,35.20
2017-12-31T13:48:46.516Z,35.60
2017-12-31T13:51:13.940Z,36.60
2017-12-31T13:53:42.160Z,38.00
2017-12-31T13:56:09.603Z,37.90
2017-12-31T13:58:37.052Z,38.60
2017-12-31T14:01:04.525Z,39.10
2017-12-31T14:03:31.964Z,39.60
2017-12-31T14:05:59.421Z,39.70
2017-12-31T14:08:26.859Z,40.30
2017-12-31T14:10:54.310Z,40.20
2017-12-31T14:13:21.738Z,40.60
2017-12-31T14:15:49.468Z,40.50
2017-12-31T14:18:16.884Z,41.00
2017-12-31T14:20:45.109Z,41.30
2017-12-31T14:23:12.574Z,41.20
2017-12-31T14:25:40.016Z,41.90
2017-12-31T14:28:07.475Z,41.70
2017-12-31T14:30:34.926Z,41.90
2017-12-31T14:33:02.404Z,42.00
2017-12-31T14:35:29.847Z,43.00
2017-12-31T14:37:57.315Z,42.20
2017-12-31T14:40:24.962Z,42.40
2017-12-31T14:42:52.402Z,42.80
2017-12-31T14:45:20.005Z,42.70
2017-12-31T14:47:47.640Z,43.30
2017-12-31T14:50:15.084Z,43.30
2017-12-31T14:52:42.540Z,44.10
2017-12-31T14:55:09.972Z,43.50
2017-12-31T14:57:38.192Z,45.20
2017-12-31T15:00:05.692Z,44.90
2017-12-31T15:02:33.127Z,44.50
2017-12-31T15:05:00.595Z,44.40
2017-12-31T15:07:28.045Z,44.40
2017-12-31T15:09:55.488Z,44.50
2017-12-31T15:12:22.951Z,44.60
2017-12-31T15:14:50.415Z,45.10
2017-12-31T15:17:17.878Z,44.80
2017-12-31T15:19:45.324Z,45.10
2017-12-31T15:22:12.790Z,45.20
2017-12-31T15:24:40.220Z,45.40
2017-12-31T15:27:07.682Z,45.50
2017-12-31T15:29:35.128Z,46.00
2017-12-31T15:32:02.611Z,46.00
2017-12-31T15:34:30.249Z,46.20
2017-12-31T15:36:57.680Z,46.40
2017-12-31T15:39:25.117Z,46.90
2017-12-31T15:41:53.323Z,46.80
2017-12-31T15:44:20.776Z,46.70
2017-12-31T15:46:48.206Z,46.80
2017-12-31T15:49:16.424Z,47.10
2017-12-31T15:51:44.118Z,47.00
2017-12-31T15:54:11.546Z,48.30
2017-12-31T15:56:39.016Z,47.40
2017-12-31T15:59:06.464Z,47.30
2017-12-31T16:01:33.931Z,47.20
2017-12-31T16:04:01.373Z,47.50
2017-12-31T16:06:28.813Z,47.60
2017-12-31T16:08:56.287Z,47.60
2017-12-31T16:11:23.741Z,48.00
2017-12-31T16:13:51.195Z,48.40
2017-12-31T16:16:18.628Z,49.60
2017-12-31T16:18:46.080Z,48.90
2017-12-31T16:21:13.547Z,49.30
2017-12-31T16:23:40.976Z,50.00
2017-12-31T16:26:08.446Z,49.70
2017-12-31T16:28:35.876Z,49.90
2017-12-31T16:31:03.327Z,50.20
2017-12-31T16:33:30.772Z,50.30
2017-12-31T16:35:58.233Z,50.20
2017-12-31T16:38:25.692Z,50.80
2017-12-31T16:40:53.136Z,50.90
2017-12-31T16:43:20.593Z,52.00
2017-12-31T16:45:48.053Z,52.10
2017-12-31T16:48:15.805Z,51.50
2017-12-31T16:50:43.230Z,51.80
2017-12-31T16:53:11.436Z,52.50
2017-12-31T16:55:38.898Z,52.40
2017-12-31T16:58:06.337Z,52.60
2017-12-31T17:00:33.804Z,52.70
2017-12-31T17:03:01.256Z,52.80
2017-12-31T17:05:28.720Z,53.40
2017-12-31T17:07:56.189Z,53.20
2017-12-31T17:10:23.846Z,53.50
2017-12-31T17:12:51.288Z,54.30
2017-12-31T17:15:18.740Z,54.50
2017-12-31T17:17:46.287Z,54.70
2017-12-31T17:20:13.733Z,55.00
2017-12-31T17:22:41.931Z,55.40
2017-12-31T17:25:09.380Z,55.30
2017-12-31T17:27:36.847Z,55.50
2017-12-31T17:30:04.328Z,55.80
2017-12-31T17:32:31.784Z,55.90
2017-12-31T17:34:59.235Z,56.10
2017-12-31T17:37:26.677Z,56.30
2017-12-31T17:39:55.902Z,56.40
2017-12-31T17:42:23.336Z,56.60
2017-12-31T17:44:50.771Z,56.70
2017-12-31T17:47:18.231Z,56.80
2017-12-31T17:49:45.684Z,57.30
2017-12-31T17:52:13.127Z,57.30
2017-12-31T17:54:40.591Z,57.30
2017-12-31T17:57:08.050Z,57.40
2017-12-31T17:59:35.498Z,58.10
2017-12-31T18:02:02.993Z,57.90
2017-12-31T18:04:30.431Z,58.10
2017-12-31T18:06:57.920Z,58.20
2017-12-31T18:09:25.386Z,58.00
2017-12-31T18:11:52.812Z,58.00
2017-12-31T18:14:20.262Z,58.20
2017-12-31T18:16:47.716Z,58.50
2017-12-31T18:19:15.155Z,58.50
2017-12-31T18:21:42.613Z,58.80
2017-12-31T18:24:10.075Z,59.00
2017-12-31T18:26:37.556Z,59.20
2017-12-31T18:29:05.010Z,59.40
2017-12-31T18:31:32.444Z,59.30
2017-12-31T18:34:00.665Z,59.70
2017-12-31T18:36:28.116Z,59.60
2017-12-31T18:38:55.604Z,60.00
2017-12-31T18:41:23.065Z,60.00
2017-12-31T18:43:50.519Z,60.40
2017-12-31T18:46:18.116Z,59.90
2017-12-31T18:48:45.588Z,60.20
2017-12-31T18:51:13.067Z,60.30
2017-12-31T18:53:40.500Z,60.40
2017-12-31T18:56:07.956Z,60.40
2017-12-31T18:58:35.411Z,60.80
2017-12-31T19:01:03.619Z,60.80
2017-12-31T19:03:31.091Z,60.70
2017-12-31T19:05:58.587Z,61.30
2017-12-31T19:08:26.791Z,61.70
2017-12-31T19:10:54.234Z,61.60
2017-12-31T19:13:21.719Z,61.60
2017-12-31T19:15:49.181Z,61.50
2017-12-31T19:18:16.648Z,61.50
2017-12-31T19:20:44.091Z,61.70
2017-12-31T19:23:11.555Z,61.50
2017-12-31T19:25:38.984Z,61.40
2017-12-31T19:28:06.446Z,61.40
2017-12-31T19:30:33.879Z,61.80
2017-12-31T19:33:01.327Z,61.90
2017-12-31T19:35:28.784Z,61.70
2017-12-31T19:37:56.240Z,61.40
2017-12-31T19:40:23.703Z,61.20
2017-12-31T19:42:51.174Z,61.50
2017-12-31T19:45:18.630Z,61.40
2017-12-31T19:47:46.071Z,61.60
2017-12-31T19:50:13.522Z,61.50
2017-12-31T19:52:41.024Z,61.40
2017-12-31T19:55:08.483Z,61.30
2017-12-31T19:57:35.921Z,61.40
2017-12-31T20:00:03.428Z,61.80
2017-12-31T20:02:30.864Z,61.60
2017-12-31T20:04:58.321Z,61.70
2017-12-31T20:07:25.767Z,62.00
2017-12-31T20:09:53.211Z,61.70
2017-12-31T20:12:20.657Z,61.90
2017-12-31T20:14:48.133Z,62.10
2017-12-31T20:17:15.572Z,62.20
2017-12-31T20:19:43.032Z,62.50
2017-12-31T20:22:10.485Z,62.30
2017-12-31T20:24:37.985Z,62.20
2017-12-31T20:27:05.419Z,62.30
2017-12-31T20:29:32.880Z,62.50
2017-12-31T20:32:00.352Z,62.30
2017-12-31T20:34:27.791Z,62.30
2017-12-31T20:36:55.232Z,62.40
2017-12-31T20:39:22.692Z,62.60
2017-12-31T20:41:50.961Z,63.10
2017-12-31T20:44:19.218Z,63.20
2017-12-31T20:46:46.670Z,63.00
2017-12-31T20:49:14.121Z,63.70
2017-12-31T20:51:41.594Z,63.90
2017-12-31T20:54:09.038Z,63.90
2017-12-31T20:56:36.470Z,63.60
2017-12-31T20:59:03.924Z,63.80
2017-12-31T21:01:31.404Z,64.00
2017-12-31T21:03:58.860Z,64.20
2017-12-31T21:06:26.319Z,64.20
2017-12-31T21:08:53.776Z,64.70
2017-12-31T21:11:21.208Z,64.60
2017-12-31T21:13:48.675Z,64.80
2017-12-31T21:16:16.117Z,65.00
2017-12-31T21:18:43.565Z,65.00
2017-12-31T21:21:11.062Z,65.10
2017-12-31T21:23:38.501Z,65.20
2017-12-31T21:26:05.931Z,65.50
2017-12-31T21:28:33.387Z,65.10
2017-12-31T21:31:00.824Z,65.20
2017-12-31T21:33:28.287Z,65.40
2017-12-31T21:35:55.726Z,65.90
2017-12-31T21:38:23.164Z,65.20
2017-12-31T21:40:50.667Z,65.40
2017-12-31T21:43:18.111Z,65.80
2017-12-31T21:45:45.567Z,66.20
2017-12-31T21:48:12.993Z,65.60
2017-12-31T21:50:40.443Z,66.10
2017-12-31T21:53:07.904Z,66.50
2017-12-31T21:55:35.346Z,66.50
2017-12-31T21:58:02.808Z,66.70
2017-12-31T22:00:30.273Z,66.50
2017-12-31T22:02:57.768Z,66.40
2017-12-31T22:05:25.218Z,66.30
2017-12-31T22:07:52.651Z,66.50
2017-12-31T22:10:20.115Z,66.50
2017-12-31T22:12:47.572Z,66.10
2017-12-31T22:15:15.021Z,66.50
2017-12-31T22:17:42.489Z,66.30
2017-12-31T22:20:09.963Z,66.10
2017-12-31T22:22:38.192Z,66.50
2017-12-31T22:25:05.829Z,66.30
2017-12-31T22:27:33.292Z,66.00
2017-12-31T22:30:00.749Z,66.10
2017-12-31T22:32:28.173Z,65.90
2017-12-31T22:34:55.609Z,65.50
2017-12-31T22:37:23.069Z,65.60
2017-12-31T22:39:50.546Z,65.30
2017-12-31T22:42:18.006Z,65.30
2017-12-31T22:44:46.219Z,65.60
2017-12-31T22:47:13.880Z,65.50
2017-12-31T22:49:41.337Z,65.60
2017-12-31T22:52:08.776Z,65.60
2017-12-31T22:54:36.232Z,65.80
2017-12-31T22:57:03.692Z,66.20
2017-12-31T22:59:31.136Z,66.10
2017-12-31T23:01:58.610Z,66.10
2017-12-31T23:04:26.081Z,66.10
2017-12-31T23:06:53.532Z,66.00
2017-12-31T23:09:20.996Z,65.90
2017-12-31T23:11:48.442Z,66.30
2017-12-31T23:14:15.928Z,66.10
2017-12-31T23:16:43.402Z,66.20
2017-12-31T23:19:10.860Z,66.20
2017-12-31T23:21:38.349Z,66.50
2017-12-31T23:24:05.771Z,66.50
2017-12-31T23:26:33.227Z,66.30
2017-12-31T23:29:00.681Z,66.50
2017-12-31T23:31:28.152Z,66.50
2017-12-31T23:33:55.613Z,66.40
2017-12-31T23:36:23.056Z,66.40
2017-12-31T23:38:50.516Z,66.50
2017-12-31T23:41:18.017Z,66.50
2017-12-31T23:43:45.457Z,66.40
2017-12-31T23:46:12.880Z,66.10
2017-12-31T23:48:40.344Z,66.00
2017-12-31T23:51:07.793Z,65.80
2017-12-31T23:53:35.261Z,65.80
2017-12-31T23:56:02.704Z,65.10
2017-12-31T23:58:30.344Z,64.70
